Qu'Appelle, Canada
Current Conditions -  °F | °C
As of 11:00 AM on Thursday 30 Oct 2014 (Local Time) from CYQR Reporting Station
Overcast Overcast  
Wind Chill: 20°   Ceiling: 1000
Heat Index: 30°   Visibility: 15mi
Dew Point: 27°   Wind: 13mph
Humidity: 86%   Direction: 60°ENE
Pressure: 30.46"   Gusts: NA
Location:  50.53°N, 103.87°W
Report Text: CYQR 301700Z 06011KT 15SM OVC010 M01/M03 A3046 RMK SC8 SLP347
Loading
Personal Weather Stations






























Interactive Weather Map New forecast layout! Learn more

10-Day Weather Forecast

Advertisements
Track Severe Weather on mobile